Olympia, South Carolina
Current Conditions -  °F | °C
As of 8:53 AM on Thursday 27 Nov 2014 (Local Time) from KCUB Reporting Station
Clear Clear  
Wind Chill: 42°   Ceiling: Unl
Heat Index: 48°   Visibility: 10mi
Dew Point: 29°   Wind: 14mph
Humidity: 48%   Direction: 290°WNW
Pressure: 30.11"   Gusts: 25mph
Location:  33.9841°N, 81.0264°W
Report Text: KCUB 271353Z AUTO 29012G22KT 10SM CLR 09/M02 A3011 RMK AO2 SLP195 T00891017
Loading
Personal Weather Stations






























Interactive Weather Map New forecast layout! Learn more

10-Day Weather Forecast

Advertisements
Track Severe Weather on mobile